createdAt,value
2019-03-20T00:01:44.003Z,3.75
2019-03-20T00:04:10.744Z,4.33
2019-03-20T00:06:39.364Z,4.72
2019-03-20T00:09:08.756Z,4.67
2019-03-20T00:11:37.349Z,4.70
2019-03-20T00:14:06.027Z,5.00
2019-03-20T00:16:34.729Z,4.53
2019-03-20T00:19:03.349Z,6.37
2019-03-20T00:21:31.940Z,5.05
2019-03-20T00:24:00.559Z,4.40
2019-03-20T00:26:29.149Z,6.17
2019-03-20T00:28:57.764Z,5.17
2019-03-20T00:31:26.369Z,5.65
2019-03-20T00:33:54.985Z,5.65
2019-03-20T00:36:23.604Z,5.90
2019-03-20T00:38:52.214Z,5.50
2019-03-20T00:41:20.811Z,4.65
2019-03-20T00:43:49.446Z,6.08
2019-03-20T00:46:18.042Z,5.00
2019-03-20T00:48:46.676Z,6.08
2019-03-20T00:51:15.293Z,4.70
2019-03-20T00:53:43.907Z,5.42
2019-03-20T00:56:12.540Z,4.50
2019-03-20T00:58:41.136Z,4.60
2019-03-20T01:01:09.786Z,5.15
2019-03-20T01:03:38.380Z,5.65
2019-03-20T01:06:07.158Z,5.10
2019-03-20T01:08:35.748Z,5.00
2019-03-20T01:11:04.455Z,4.40
2019-03-20T01:13:33.056Z,4.15
2019-03-20T01:16:01.769Z,4.30
2019-03-20T01:18:30.368Z,4.70
2019-03-20T01:20:59.020Z,4.60
2019-03-20T01:23:27.729Z,4.22
2019-03-20T01:25:56.634Z,4.80
2019-03-20T01:28:25.239Z,4.08
2019-03-20T01:30:53.873Z,4.75
2019-03-20T01:33:22.489Z,4.65
2019-03-20T01:35:51.093Z,4.95
2019-03-20T01:38:19.676Z,4.80
2019-03-20T01:40:48.303Z,5.17
2019-03-20T01:43:16.957Z,4.83
2019-03-20T01:45:45.556Z,5.20
2019-03-20T01:48:16.654Z,5.97
2019-03-20T01:50:45.242Z,4.50
2019-03-20T01:53:13.875Z,6.00
2019-03-20T01:55:42.497Z,4.35
2019-03-20T01:58:11.176Z,5.15
2019-03-20T02:00:39.865Z,4.72
2019-03-20T02:03:08.539Z,5.55
2019-03-20T02:05:37.146Z,5.08
2019-03-20T02:08:05.845Z,5.00
2019-03-20T02:10:34.434Z,4.15
2019-03-20T02:13:03.084Z,5.87
2019-03-20T02:15:39.007Z,5.47
2019-03-20T02:18:02.182Z,5.08
2019-03-20T02:20:30.838Z,5.35
2019-03-20T02:22:59.450Z,5.70
2019-03-20T02:25:28.047Z,5.42
2019-03-20T02:27:56.757Z,4.83
2019-03-20T02:30:25.376Z,5.83
2019-03-20T02:32:54.017Z,5.30
2019-03-20T02:35:22.623Z,5.75
2019-03-20T02:37:51.256Z,5.22
2019-03-20T02:40:19.935Z,4.65
2019-03-20T02:42:48.533Z,4.90
2019-03-20T02:45:17.250Z,5.37
2019-03-20T02:47:45.836Z,4.40
2019-03-20T02:50:15.733Z,5.58
2019-03-20T02:52:44.452Z,6.12
2019-03-20T02:55:13.196Z,4.70
2019-03-20T02:57:41.874Z,4.53
2019-03-20T03:00:12.272Z,5.42
2019-03-20T03:02:41.064Z,6.10
2019-03-20T03:05:10.185Z,5.53
2019-03-20T03:07:38.967Z,5.42
2019-03-20T03:10:08.639Z,5.12
2019-03-20T03:12:37.225Z,5.78
2019-03-20T03:15:06.095Z,5.90
2019-03-20T03:17:34.750Z,5.95
2019-03-20T03:20:03.702Z,6.20
2019-03-20T03:22:32.316Z,7.00
2019-03-20T03:25:00.936Z,5.78
2019-03-20T03:27:29.572Z,6.10
2019-03-20T03:29:58.260Z,5.92
2019-03-20T03:32:26.899Z,7.17
2019-03-20T03:34:55.528Z,6.37
2019-03-20T03:37:24.131Z,6.03
2019-03-20T03:39:52.741Z,6.37
2019-03-20T03:42:21.452Z,5.58
2019-03-20T03:44:50.143Z,5.42
2019-03-20T03:47:18.761Z,6.20
2019-03-20T03:49:47.564Z,5.65
2019-03-20T03:52:16.228Z,5.67
2019-03-20T03:54:44.816Z,5.42
2019-03-20T03:57:13.515Z,6.00
2019-03-20T03:59:42.115Z,6.35
2019-03-20T04:02:10.720Z,6.05
2019-03-20T04:04:39.331Z,6.53
2019-03-20T04:07:07.963Z,5.20
2019-03-20T04:09:36.554Z,7.08
2019-03-20T04:12:05.269Z,5.95
2019-03-20T04:14:33.856Z,6.40
2019-03-20T04:17:02.542Z,5.70
2019-03-20T04:19:31.226Z,6.30
2019-03-20T04:21:59.906Z,5.92
2019-03-20T04:24:28.524Z,6.75
2019-03-20T04:26:57.209Z,6.37
2019-03-20T04:29:25.843Z,6.78
2019-03-20T04:31:54.468Z,6.75
2019-03-20T04:34:23.195Z,6.97
2019-03-20T04:36:51.792Z,6.25
2019-03-20T04:39:20.418Z,7.00
2019-03-20T04:41:49.008Z,6.05
2019-03-20T04:44:17.624Z,5.90
2019-03-20T04:46:46.221Z,7.25
2019-03-20T04:49:14.826Z,6.35
2019-03-20T04:51:43.421Z,6.97
2019-03-20T04:54:12.050Z,8.55
2019-03-20T04:56:40.692Z,7.92
2019-03-20T04:59:09.300Z,7.25
2019-03-20T05:01:37.943Z,7.78
2019-03-20T05:04:06.628Z,7.42
2019-03-20T05:06:35.350Z,8.20
2019-03-20T05:09:04.856Z,8.78
2019-03-20T05:11:33.475Z,7.60
2019-03-20T05:14:02.091Z,7.30
2019-03-20T05:16:30.713Z,7.28
2019-03-20T05:18:59.365Z,7.95
2019-03-20T05:21:27.947Z,9.30
2019-03-20T05:23:56.614Z,7.12
2019-03-20T05:26:25.274Z,8.93
2019-03-20T05:28:53.880Z,8.48
2019-03-20T05:31:22.494Z,8.90
2019-03-20T05:33:51.088Z,8.30
2019-03-20T05:36:19.718Z,7.17
2019-03-20T05:38:48.318Z,7.83
2019-03-20T05:41:16.933Z,6.80
2019-03-20T05:43:45.562Z,7.37
2019-03-20T05:46:14.199Z,6.75
2019-03-20T05:48:42.819Z,6.83
2019-03-20T05:51:11.444Z,7.95
2019-03-20T05:53:40.046Z,7.37
2019-03-20T05:56:08.681Z,8.08
2019-03-20T05:58:37.311Z,8.35
2019-03-20T06:01:05.933Z,7.47
2019-03-20T06:03:34.551Z,7.85
2019-03-20T06:06:03.165Z,20.68
2019-03-20T06:08:31.807Z,9.70
2019-03-20T06:11:00.415Z,9.40
2019-03-20T06:13:29.033Z,9.43
2019-03-20T06:15:57.645Z,7.90
2019-03-20T06:18:26.244Z,7.75
2019-03-20T06:20:54.862Z,8.50
2019-03-20T06:23:23.491Z,9.08
2019-03-20T06:25:52.099Z,8.50
2019-03-20T06:28:20.705Z,9.18
2019-03-20T06:30:49.307Z,8.48
2019-03-20T06:33:17.939Z,7.83
2019-03-20T06:35:46.558Z,8.50
2019-03-20T06:38:15.262Z,8.80
2019-03-20T06:40:43.864Z,8.43
2019-03-20T06:43:12.482Z,9.05
2019-03-20T06:45:41.114Z,10.03
2019-03-20T06:48:09.694Z,11.00
2019-03-20T06:50:38.293Z,9.43
2019-03-20T06:53:06.905Z,11.08
2019-03-20T06:55:35.526Z,9.03
2019-03-20T06:58:04.142Z,9.30
2019-03-20T07:00:58.076Z,9.40
2019-03-20T07:03:55.767Z,10.25
2019-03-20T07:07:01.250Z,11.15
2019-03-20T07:09:38.630Z,9.30
2019-03-20T07:12:07.244Z,9.40
2019-03-20T07:14:35.944Z,11.05
2019-03-20T07:17:04.645Z,8.40
2019-03-20T07:19:33.287Z,10.15
2019-03-20T07:22:01.898Z,8.43
2019-03-20T07:24:30.535Z,7.92
2019-03-20T07:26:59.250Z,8.30
2019-03-20T07:29:27.925Z,8.43
2019-03-20T07:31:56.700Z,8.03
2019-03-20T07:34:25.317Z,9.00
2019-03-20T07:36:53.962Z,9.88
2019-03-20T07:39:22.638Z,9.50
2019-03-20T07:41:51.395Z,10.75
2019-03-20T07:44:20.117Z,8.80
2019-03-20T07:46:48.741Z,10.10
2019-03-20T07:49:17.349Z,9.35
2019-03-20T07:51:45.987Z,10.88
2019-03-20T07:54:14.687Z,9.63
2019-03-20T07:56:43.331Z,8.23
2019-03-20T07:59:11.948Z,9.40
2019-03-20T08:01:40.633Z,10.10
2019-03-20T08:04:09.308Z,9.05
2019-03-20T08:06:37.913Z,9.20
2019-03-20T08:09:07.609Z,9.90
2019-03-20T08:11:36.316Z,9.18
2019-03-20T08:14:05.004Z,9.30
2019-03-20T08:16:33.614Z,10.05
2019-03-20T08:19:02.263Z,9.65
2019-03-20T08:21:30.913Z,8.48
2019-03-20T08:23:59.550Z,9.15
2019-03-20T08:26:28.169Z,8.93
2019-03-20T08:28:56.768Z,9.45
2019-03-20T08:31:25.391Z,10.28
2019-03-20T08:33:54.061Z,9.80
2019-03-20T08:36:22.744Z,8.30
2019-03-20T08:38:51.334Z,8.75
2019-03-20T08:41:19.932Z,8.73
2019-03-20T08:43:48.574Z,9.58
2019-03-20T08:46:17.264Z,8.55
2019-03-20T08:48:48.245Z,9.73
2019-03-20T08:51:16.214Z,8.98
2019-03-20T08:53:44.852Z,9.00
2019-03-20T08:56:13.476Z,9.55
2019-03-20T08:58:42.143Z,8.95
2019-03-20T09:01:10.744Z,10.18
2019-03-20T09:03:39.365Z,9.00
2019-03-20T09:06:07.996Z,9.50
2019-03-20T09:08:36.628Z,8.90
2019-03-20T09:11:05.309Z,8.53
2019-03-20T09:13:33.946Z,6.90
2019-03-20T09:16:02.541Z,6.67
2019-03-20T09:18:31.157Z,6.95
2019-03-20T09:20:59.857Z,7.83
2019-03-20T09:23:28.482Z,7.75
2019-03-20T09:25:57.081Z,6.62
2019-03-20T09:28:25.718Z,7.47
2019-03-20T09:30:54.407Z,7.28
2019-03-20T09:33:23.041Z,7.35
2019-03-20T09:35:51.678Z,7.40
2019-03-20T09:38:20.426Z,7.12
2019-03-20T09:40:49.118Z,6.67
2019-03-20T09:43:17.747Z,7.20
2019-03-20T09:45:46.366Z,6.45
2019-03-20T09:48:15.014Z,6.80
2019-03-20T09:50:43.628Z,6.80
2019-03-20T09:53:12.258Z,6.97
2019-03-20T09:55:40.896Z,7.28
2019-03-20T09:58:11.753Z,8.15
2019-03-20T10:00:39.846Z,7.67
2019-03-20T10:03:08.445Z,7.60
2019-03-20T10:05:37.065Z,7.55
2019-03-20T10:08:05.738Z,6.92
2019-03-20T10:10:34.358Z,7.47
2019-03-20T10:13:02.962Z,6.53
2019-03-20T10:15:31.590Z,6.50
2019-03-20T10:18:00.314Z,7.00
2019-03-20T10:20:28.944Z,5.90
2019-03-20T10:22:57.564Z,6.05
2019-03-20T10:25:26.248Z,5.47
2019-03-20T10:27:54.844Z,5.72
2019-03-20T10:30:23.485Z,5.53
2019-03-20T10:32:52.192Z,5.33
2019-03-20T10:35:21.072Z,4.50
2019-03-20T10:37:49.769Z,4.25
2019-03-20T10:40:19.738Z,4.50
2019-03-20T10:42:48.357Z,2.70
2019-03-20T10:45:17.268Z,4.30
2019-03-20T10:47:46.030Z,3.72
2019-03-20T10:50:16.545Z,3.12
2019-03-20T10:52:45.251Z,3.20
2019-03-20T10:55:14.104Z,2.63
2019-03-20T10:57:42.876Z,3.67
2019-03-20T11:00:15.833Z,3.10
2019-03-20T11:02:44.488Z,4.20
2019-03-20T11:05:13.269Z,3.50
2019-03-20T11:07:41.961Z,4.20
2019-03-20T11:10:11.630Z,3.10
2019-03-20T11:12:40.304Z,3.10
2019-03-20T11:15:11.062Z,2.17
2019-03-20T11:17:45.058Z,3.70
2019-03-20T11:20:15.318Z,2.20
2019-03-20T11:22:44.028Z,3.20
2019-03-20T11:25:14.056Z,2.20
2019-03-20T11:27:42.788Z,3.33
2019-03-20T11:30:17.889Z,3.70
2019-03-20T11:32:46.651Z,4.00
2019-03-20T11:35:15.350Z,3.03
2019-03-20T11:37:43.949Z,3.30
2019-03-20T11:40:15.508Z,2.65
2019-03-20T11:42:44.107Z,3.73
2019-03-20T11:45:13.138Z,3.80
2019-03-20T11:47:41.774Z,4.00
2019-03-20T11:50:13.728Z,3.53
2019-03-20T11:52:42.426Z,3.30
2019-03-20T11:55:11.088Z,3.77
2019-03-20T11:57:40.450Z,3.97
2019-03-20T12:00:11.262Z,3.80
2019-03-20T12:02:39.950Z,3.77
2019-03-20T12:05:08.667Z,4.05
2019-03-20T12:07:37.342Z,3.63
2019-03-20T12:10:07.084Z,3.77
2019-03-20T12:12:35.713Z,2.60
2019-03-20T12:15:05.027Z,3.30
2019-03-20T12:17:33.658Z,3.03
2019-03-20T12:20:02.252Z,3.00
2019-03-20T12:22:30.929Z,3.03
2019-03-20T12:24:59.528Z,3.10
2019-03-20T12:27:28.221Z,3.53
2019-03-20T12:29:56.864Z,3.07
2019-03-20T12:32:25.570Z,3.07
2019-03-20T12:34:54.241Z,3.23
2019-03-20T12:37:22.785Z,3.37
2019-03-20T12:39:53.493Z,3.30
2019-03-20T12:42:21.801Z,2.90
2019-03-20T12:44:50.434Z,3.50
2019-03-20T12:47:19.042Z,3.40
2019-03-20T12:49:47.661Z,3.80
2019-03-20T12:52:16.306Z,4.27
2019-03-20T12:54:44.929Z,3.63
2019-03-20T12:57:13.558Z,3.40
2019-03-20T12:59:42.184Z,4.10
2019-03-20T13:02:10.787Z,3.13
2019-03-20T13:04:39.425Z,3.50
2019-03-20T13:07:08.043Z,3.03
2019-03-20T13:09:36.656Z,3.10
2019-03-20T13:12:05.248Z,3.90
2019-03-20T13:14:33.951Z,3.10
2019-03-20T13:17:02.564Z,3.17
2019-03-20T13:19:31.167Z,4.13
2019-03-20T13:21:59.802Z,2.73
2019-03-20T13:24:28.433Z,3.50
2019-03-20T13:26:57.061Z,3.47
2019-03-20T13:29:25.716Z,2.90
2019-03-20T13:31:54.355Z,3.10
2019-03-20T13:34:23.157Z,3.77
2019-03-20T13:36:51.764Z,2.97
2019-03-20T13:39:20.363Z,3.50
2019-03-20T13:41:48.968Z,3.23
2019-03-20T13:44:17.569Z,3.70
2019-03-20T13:46:46.205Z,4.30
2019-03-20T13:49:14.820Z,3.23
2019-03-20T13:51:43.431Z,3.90
2019-03-20T13:54:12.046Z,3.17
2019-03-20T13:56:40.642Z,3.13
2019-03-20T13:59:09.302Z,3.20
2019-03-20T14:01:37.899Z,3.00
2019-03-20T14:04:06.523Z,2.87
2019-03-20T14:06:35.130Z,2.90
2019-03-20T14:09:05.503Z,2.90
2019-03-20T14:11:34.156Z,4.03
2019-03-20T14:14:02.777Z,3.40
2019-03-20T14:16:31.439Z,3.70
2019-03-20T14:19:00.061Z,2.73
2019-03-20T14:21:28.694Z,3.23
2019-03-20T14:23:57.370Z,3.13
2019-03-20T14:26:25.976Z,3.40
2019-03-20T14:28:54.648Z,3.27
2019-03-20T14:31:23.276Z,3.13
2019-03-20T14:33:51.906Z,2.57
2019-03-20T14:36:20.568Z,3.57
2019-03-20T14:38:49.222Z,3.50
2019-03-20T14:41:21.808Z,3.80
2019-03-20T14:43:48.174Z,2.90
2019-03-20T14:46:16.810Z,3.00
2019-03-20T14:48:45.411Z,2.97
2019-03-20T14:51:14.229Z,3.10
2019-03-20T14:53:42.802Z,3.97
2019-03-20T14:56:11.605Z,3.63
2019-03-20T14:58:40.377Z,2.90
2019-03-20T15:01:08.960Z,3.00
2019-03-20T15:03:37.633Z,2.80
2019-03-20T15:06:06.320Z,3.40
2019-03-20T15:08:34.920Z,2.47
2019-03-20T15:11:03.543Z,2.63
2019-03-20T15:13:32.161Z,3.43
2019-03-20T15:16:04.718Z,2.80
2019-03-20T15:18:33.343Z,3.00
2019-03-20T15:21:01.957Z,2.73
2019-03-20T15:23:30.535Z,2.37
2019-03-20T15:25:59.189Z,3.10
2019-03-20T15:28:27.788Z,2.80
2019-03-20T15:30:56.387Z,3.00
2019-03-20T15:33:25.015Z,3.53
2019-03-20T15:35:53.633Z,3.27
2019-03-20T15:38:22.329Z,3.47
2019-03-20T15:40:56.226Z,2.63
2019-03-20T15:43:21.393Z,3.07
2019-03-20T15:45:50.145Z,2.77
2019-03-20T15:48:18.744Z,3.13
2019-03-20T15:50:47.442Z,2.30
2019-03-20T15:53:16.099Z,2.90
2019-03-20T15:55:44.768Z,2.77
2019-03-20T15:58:13.392Z,3.13
2019-03-20T16:00:42.014Z,2.90
2019-03-20T16:03:12.933Z,2.70
2019-03-20T16:05:41.643Z,3.53
2019-03-20T16:08:10.256Z,2.73
2019-03-20T16:10:38.941Z,3.00
2019-03-20T16:13:07.544Z,2.90
2019-03-20T16:15:36.235Z,2.47
2019-03-20T16:18:05.064Z,2.63
2019-03-20T16:20:33.675Z,3.00
2019-03-20T16:23:02.274Z,3.20
2019-03-20T16:25:30.905Z,3.00
2019-03-20T16:27:59.558Z,3.50
2019-03-20T16:30:28.195Z,2.67
2019-03-20T16:32:56.868Z,2.63
2019-03-20T16:35:25.608Z,2.80
2019-03-20T16:37:54.317Z,3.33
2019-03-20T16:40:23.936Z,2.80
2019-03-20T16:42:52.600Z,2.67
2019-03-20T16:45:23.335Z,3.23
2019-03-20T16:47:51.957Z,2.83
2019-03-20T16:50:20.677Z,2.63
2019-03-20T16:52:49.529Z,2.73
2019-03-20T16:55:18.348Z,2.90
2019-03-20T16:57:46.988Z,3.33
2019-03-20T17:00:18.531Z,3.47
2019-03-20T17:02:47.140Z,3.60
2019-03-20T17:05:15.835Z,3.00
2019-03-20T17:07:44.450Z,3.03
2019-03-20T17:10:21.461Z,2.77
2019-03-20T17:12:50.099Z,2.73
2019-03-20T17:15:23.829Z,2.67
2019-03-20T17:17:52.540Z,2.73
2019-03-20T17:20:21.244Z,2.60
2019-03-20T17:22:49.930Z,1.87
2019-03-20T17:25:18.554Z,2.00
2019-03-20T17:27:47.246Z,3.20
2019-03-20T17:30:20.981Z,3.20
2019-03-20T17:32:49.608Z,2.10
2019-03-20T17:35:18.254Z,2.87
2019-03-20T17:37:46.944Z,2.47
2019-03-20T17:40:16.539Z,4.10
2019-03-20T17:42:45.141Z,3.60
2019-03-20T17:45:14.829Z,1.80
2019-03-20T17:47:43.597Z,2.60
2019-03-20T17:50:15.209Z,2.80
2019-03-20T17:52:45.255Z,3.20
2019-03-20T17:55:14.101Z,3.13
2019-03-20T17:57:42.735Z,2.23
2019-03-20T18:00:16.947Z,2.97
2019-03-20T18:02:45.637Z,2.80
2019-03-20T18:05:14.452Z,3.07
2019-03-20T18:07:43.129Z,3.00
2019-03-20T18:10:11.767Z,2.70
2019-03-20T18:12:40.437Z,3.10
2019-03-20T18:15:10.776Z,3.30
2019-03-20T18:17:39.498Z,4.17
2019-03-20T18:20:09.336Z,5.80
2019-03-20T18:22:37.943Z,4.93
2019-03-20T18:25:07.155Z,3.50
2019-03-20T18:27:35.756Z,3.00
2019-03-20T18:30:06.465Z,3.37
2019-03-20T18:32:35.086Z,3.23
2019-03-20T18:35:03.884Z,3.20
2019-03-20T18:37:32.517Z,3.77
2019-03-20T18:40:01.140Z,2.90
2019-03-20T18:42:29.756Z,3.43
2019-03-20T18:44:58.415Z,3.05
2019-03-20T18:47:27.040Z,3.50
2019-03-20T18:49:55.683Z,2.63
2019-03-20T18:52:24.280Z,2.50
2019-03-20T18:54:52.907Z,2.33
2019-03-20T18:57:21.563Z,2.62
2019-03-20T18:59:50.244Z,2.87
2019-03-20T19:02:18.899Z,2.50
2019-03-20T19:04:47.516Z,3.20
2019-03-20T19:07:16.218Z,2.47
2019-03-20T19:09:44.894Z,2.80
2019-03-20T19:12:13.515Z,2.73
2019-03-20T19:14:42.135Z,2.65
2019-03-20T19:17:10.789Z,3.20
2019-03-20T19:19:39.477Z,3.40
2019-03-20T19:22:08.086Z,3.47
2019-03-20T19:24:36.707Z,2.60
2019-03-20T19:27:05.390Z,3.10
2019-03-20T19:29:34.048Z,3.20
2019-03-20T19:32:02.635Z,2.85
2019-03-20T19:34:31.327Z,3.20
2019-03-20T19:36:59.963Z,2.35
2019-03-20T19:39:28.659Z,2.58
2019-03-20T19:41:57.416Z,2.70
2019-03-20T19:44:26.063Z,2.20
2019-03-20T19:46:56.812Z,2.40
2019-03-20T19:50:02.757Z,2.60
2019-03-20T19:52:38.649Z,3.62
2019-03-20T19:55:13.339Z,3.85
2019-03-20T19:57:44.560Z,6.10
2019-03-20T20:00:17.822Z,5.75
2019-03-20T20:02:47.331Z,5.20
2019-03-20T20:05:19.144Z,4.85
2019-03-20T20:07:51.611Z,3.90
2019-03-20T20:10:21.605Z,4.78
2019-03-20T20:12:55.654Z,4.83
2019-03-20T20:15:27.252Z,6.75
2019-03-20T20:17:56.388Z,6.10
2019-03-20T20:20:27.099Z,6.08
2019-03-20T20:22:56.109Z,6.55
2019-03-20T20:25:32.072Z,5.50
2019-03-20T20:28:17.544Z,4.97
2019-03-20T20:31:04.178Z,4.78
2019-03-20T20:33:52.326Z,3.52
2019-03-20T20:36:43.857Z,3.60
2019-03-20T20:39:21.965Z,3.30
2019-03-20T20:41:51.341Z,2.83
2019-03-20T20:44:20.732Z,2.98
2019-03-20T20:46:52.051Z,3.00
2019-03-20T20:49:24.558Z,2.72
2019-03-20T20:51:55.217Z,2.90
2019-03-20T20:54:42.114Z,3.02
2019-03-20T20:57:15.683Z,2.92
2019-03-20T20:59:44.954Z,3.35
2019-03-20T21:02:17.030Z,3.50
2019-03-20T21:04:47.479Z,3.33
2019-03-20T21:07:17.764Z,3.15
2019-03-20T21:09:52.083Z,3.33
2019-03-20T21:12:43.013Z,3.20
2019-03-20T21:15:46.246Z,2.90
2019-03-20T21:18:59.744Z,3.80
2019-03-20T21:21:50.383Z,3.15
2019-03-20T21:24:28.995Z,3.87
2019-03-20T21:27:45.919Z,3.35
2019-03-20T21:31:02.523Z,3.98
2019-03-20T21:34:34.875Z,3.58
2019-03-20T21:37:53.297Z,4.00
2019-03-20T21:40:24.434Z,5.03
2019-03-20T21:43:29.710Z,4.28
2019-03-20T21:46:31.352Z,4.08
2019-03-20T21:49:02.865Z,4.65
2019-03-20T21:51:42.722Z,3.20
2019-03-20T21:54:59.751Z,4.53
2019-03-20T21:58:00.428Z,4.53
2019-03-20T22:01:03.450Z,3.40
2019-03-20T22:03:33.798Z,3.55
2019-03-20T22:06:41.209Z,4.10
2019-03-20T22:09:29.452Z,4.05
2019-03-20T22:12:38.419Z,3.62
2019-03-20T22:15:36.751Z,3.40
2019-03-20T22:18:29.849Z,4.17
2019-03-20T22:21:12.489Z,4.37
2019-03-20T22:24:52.189Z,4.62
2019-03-20T22:28:01.648Z,4.53
2019-03-20T22:30:40.230Z,4.40
2019-03-20T22:33:45.241Z,4.37
2019-03-20T22:36:23.935Z,4.80
2019-03-20T22:39:42.939Z,4.28
2019-03-20T22:42:18.528Z,5.28
2019-03-20T22:45:01.066Z,5.58
2019-03-20T22:48:13.017Z,5.58
2019-03-20T22:57:54.149Z,4.80
2019-03-20T23:00:25.521Z,4.37
2019-03-20T23:03:06.040Z,4.58
2019-03-20T23:05:44.785Z,5.30
2019-03-20T23:08:17.660Z,4.72
2019-03-20T23:10:50.542Z,3.92
2019-03-20T23:13:42.034Z,5.00
2019-03-20T23:16:14.933Z,5.47
2019-03-20T23:18:53.530Z,4.47
2019-03-20T23:21:44.970Z,6.17
2019-03-20T23:24:26.632Z,4.92
2019-03-20T23:26:57.977Z,4.78
2019-03-20T23:29:32.731Z,4.95
2019-03-20T23:32:06.402Z,5.75
2019-03-20T23:37:38.696Z,5.58
2019-03-20T23:40:16.018Z,5.67
2019-03-20T23:43:08.857Z,5.28
2019-03-20T23:45:43.051Z,6.97
2019-03-20T23:48:29.881Z,6.25
2019-03-20T23:51:14.605Z,6.30
2019-03-20T23:53:47.252Z,6.33
2019-03-20T23:56:16.479Z,5.30
2019-03-20T23:58:45.773Z,6.58
